PWSweather.com
Personal Weather Stations
Station Observations
OPENSRS
Liberty Village, Toronto, ON M6K 3M1

Liberty VillageToronto, ON M6K 3M1

Lat: 43.63831, Lon: -79.42566

Elevation: 303

Station Type: Davis Instruments Vantage Pro 2

Latest ConditionsUpdated 4:20:09 AM EDT Saturday, Nov 1, 2014
Currently Today's Max Today's Min Today's Average
Temperature 34.8°F1.6°C 37.8°F3.2°C 34.6°F1.4°C 36.4°F2.4°C
Dew Point 33.0°F0.6°C 35.4°F1.9°C 32.5°F0.3°C 33.9°F1.1°C
Winds 7.0 mph N11.3 kmh N 19.0 mph N30.6 kmh N - 8.3 mph 13.4 kmh
Wind Gusts 15.0 mph24.1 kmh 20.0 mph32.2 kmh - -
Humidity 93% 93% 90% 91%
Pressure 30.09 in1019.0 mb 30.09 in1019.0 mb 30.05 in1017.6 mb -
Hour Temp Dew Point Humidity Winds Wind Gusts Pressure Precip Precip Rate Daily Precip Total
04:20 AM 34.8°F1.6°C 33.0°F0.6°C 93% 7.0 mph N11.3 kmh N 15.0 mph24.1 kmh 30.09 in1019.0 mb 0.00 in0.0 mm 0.00 in/hr0.0 mm/hr 0.00 in0.0 mm
04:19 AM 34.7°F1.5°C 32.9°F0.5°C 93% 5.0 mph N8.0 kmh N 15.0 mph24.1 kmh 30.09 in1019.0 mb 0.00 in0.0 mm 0.00 in/hr0.0 mm/hr 0.00 in0.0 mm
04:18 AM 34.7°F1.5°C 32.9°F0.5°C 93% 6.0 mph NNE9.7 kmh NNE 15.0 mph24.1 kmh 30.09 in1019.0 mb 0.00 in0.0 mm 0.00 in/hr0.0 mm/hr 0.00 in0.0 mm
04:15 AM 34.6°F1.4°C 32.5°F0.3°C 92% 11.0 mph N17.7 kmh N 15.0 mph24.1 kmh 30.09 in1019.0 mb 0.00 in0.0 mm 0.00 in/hr0.0 mm/hr 0.00 in0.0 mm
04:14 AM 34.6°F1.4°C 32.5°F0.3°C 92% 7.0 mph N11.3 kmh N 15.0 mph24.1 kmh 30.09 in1019.0 mb 0.00 in0.0 mm 0.00 in/hr0.0 mm/hr 0.00 in0.0 mm
04:13 AM 34.6°F1.4°C 32.5°F0.3°C 92% 4.0 mph N6.4 kmh N 15.0 mph24.1 kmh 30.09 in1019.0 mb 0.00 in0.0 mm 0.00 in/hr0.0 mm/hr 0.00 in0.0 mm
04:10 AM 34.6°F1.4°C 32.5°F0.3°C 92% 6.0 mph NNE9.7 kmh NNE 15.0 mph24.1 kmh 30.09 in1019.0 mb 0.00 in0.0 mm 0.00 in/hr0.0 mm/hr 0.00 in0.0 mm
04:09 AM 34.6°F1.4°C 32.5°F0.3°C 92% 10.0 mph N16.1 kmh N 15.0 mph24.1 kmh 30.09 in1019.0 mb 0.00 in0.0 mm 0.00 in/hr0.0 mm/hr 0.00 in0.0 mm
04:08 AM 34.6°F1.4°C 32.5°F0.3°C 92% 12.0 mph NNE19.3 kmh NNE 15.0 mph24.1 kmh 30.09 in1019.0 mb 0.00 in0.0 mm 0.00 in/hr0.0 mm/hr 0.00 in0.0 mm
04:05 AM 34.6°F1.4°C 32.5°F0.3°C 92% 12.0 mph N19.3 kmh N 14.0 mph22.5 kmh 30.09 in1019.0 mb 0.00 in0.0 mm 0.00 in/hr0.0 mm/hr 0.00 in0.0 mm
04:04 AM 34.7°F1.5°C 32.6°F0.3°C 92% 11.0 mph N17.7 kmh N 14.0 mph22.5 kmh 30.09 in1019.0 mb 0.00 in0.0 mm 0.00 in/hr0.0 mm/hr 0.00 in0.0 mm
04:03 AM 34.7°F1.5°C 32.6°F0.3°C 92% 8.0 mph N12.9 kmh N 14.0 mph22.5 kmh 30.09 in1019.0 mb 0.00 in0.0 mm 0.00 in/hr0.0 mm/hr 0.00 in0.0 mm
04:00 AM 34.7°F1.5°C 32.6°F0.3°C 92% 9.0 mph N14.5 kmh N 13.0 mph20.9 kmh 30.09 in1019.0 mb 0.00 in0.0 mm 0.00 in/hr0.0 mm/hr 0.00 in0.0 mm
03:59 AM 34.7°F1.5°C 32.6°F0.3°C 92% 10.0 mph N16.1 kmh N 20.0 mph32.2 kmh 30.09 in1019.0 mb 0.00 in0.0 mm 0.00 in/hr0.0 mm/hr 0.00 in0.0 mm
03:58 AM 34.7°F1.5°C 32.6°F0.3°C 92% 5.0 mph NNW8.0 kmh NNW 20.0 mph32.2 kmh 30.09 in1019.0 mb 0.00 in0.0 mm 0.00 in/hr0.0 mm/hr 0.00 in0.0 mm
03:55 AM 34.7°F1.5°C 32.6°F0.3°C 92% 11.0 mph N17.7 kmh N 20.0 mph32.2 kmh 30.08 in1018.6 mb 0.00 in0.0 mm 0.00 in/hr0.0 mm/hr 0.00 in0.0 mm
03:54 AM 34.7°F1.5°C 32.6°F0.3°C 92% 4.0 mph NNW6.4 kmh NNW 20.0 mph32.2 kmh 30.08 in1018.6 mb 0.00 in0.0 mm 0.00 in/hr0.0 mm/hr 0.00 in0.0 mm
03:53 AM 34.8°F1.6°C 32.7°F0.4°C 92% 14.0 mph NNW22.5 kmh NNW 20.0 mph32.2 kmh 30.09 in1019.0 mb 0.00 in0.0 mm 0.00 in/hr0.0 mm/hr 0.00 in0.0 mm
03:50 AM 34.8°F1.6°C 32.7°F0.4°C 92% 12.0 mph N19.3 kmh N 20.0 mph32.2 kmh 30.08 in1018.6 mb 0.00 in0.0 mm 0.00 in/hr0.0 mm/hr 0.00 in0.0 mm
03:49 AM 34.9°F1.6°C 32.8°F0.4°C 92% 18.0 mph NNE29.0 kmh NNE 20.0 mph32.2 kmh 30.08 in1018.6 mb 0.00 in0.0 mm 0.00 in/hr0.0 mm/hr 0.00 in0.0 mm
03:48 AM 34.9°F1.6°C 32.8°F0.4°C 92% 9.0 mph N14.5 kmh N 20.0 mph32.2 kmh 30.08 in1018.6 mb 0.00 in0.0 mm 0.00 in/hr0.0 mm/hr 0.00 in0.0 mm
03:45 AM 35.1°F1.7°C 32.7°F0.4°C 91% 6.0 mph N9.7 kmh N 20.0 mph32.2 kmh 30.08 in1018.6 mb 0.00 in0.0 mm 0.00 in/hr0.0 mm/hr 0.00 in0.0 mm
03:44 AM 35.1°F1.7°C 32.7°F0.4°C 91% 7.0 mph N11.3 kmh N 20.0 mph32.2 kmh 30.08 in1018.6 mb 0.00 in0.0 mm 0.00 in/hr0.0 mm/hr 0.00 in0.0 mm
03:43 AM 35.1°F1.7°C 32.7°F0.4°C 91% 6.0 mph N9.7 kmh N 20.0 mph32.2 kmh 30.08 in1018.6 mb 0.00 in0.0 mm 0.00 in/hr0.0 mm/hr 0.00 in0.0 mm
03:40 AM 35.3°F1.8°C 32.9°F0.5°C 91% 9.0 mph N14.5 kmh N 20.0 mph32.2 kmh 30.08 in1018.6 mb 0.00 in0.0 mm 0.00 in/hr0.0 mm/hr 0.00 in0.0 mm
03:39 AM 35.3°F1.8°C 32.9°F0.5°C 91% 8.0 mph NW12.9 kmh NW 20.0 mph32.2 kmh 30.08 in1018.6 mb 0.00 in0.0 mm 0.00 in/hr0.0 mm/hr 0.00 in0.0 mm
03:38 AM 35.2°F1.8°C 32.8°F0.4°C 91% Calm Calm 20.0 mph32.2 kmh 30.08 in1018.6 mb 0.00 in0.0 mm 0.00 in/hr0.0 mm/hr 0.00 in0.0 mm
03:35 AM 35.3°F1.8°C 32.9°F0.5°C 91% 8.0 mph N12.9 kmh N 20.0 mph32.2 kmh 30.08 in1018.6 mb 0.00 in0.0 mm 0.00 in/hr0.0 mm/hr 0.00 in0.0 mm
03:34 AM 35.3°F1.8°C 32.9°F0.5°C 91% 6.0 mph NNE9.7 kmh NNE 20.0 mph32.2 kmh 30.08 in1018.6 mb 0.00 in0.0 mm 0.00 in/hr0.0 mm/hr 0.00 in0.0 mm
03:33 AM 35.4°F1.9°C 33.0°F0.6°C 91% 11.0 mph NNE17.7 kmh NNE 20.0 mph32.2 kmh 30.08 in1018.6 mb 0.00 in0.0 mm 0.00 in/hr0.0 mm/hr 0.00 in0.0 mm
03:30 AM 35.4°F1.9°C 33.0°F0.6°C 91% 5.0 mph NNE8.0 kmh NNE 20.0 mph32.2 kmh 30.08 in1018.6 mb 0.00 in0.0 mm 0.00 in/hr0.0 mm/hr 0.00 in0.0 mm
03:29 AM 35.4°F1.9°C 32.8°F0.4°C 90% 6.0 mph N9.7 kmh N 20.0 mph32.2 kmh 30.08 in1018.6 mb 0.00 in0.0 mm 0.00 in/hr0.0 mm/hr 0.00 in0.0 mm
03:28 AM 35.5°F1.9°C 32.9°F0.5°C 90% 8.0 mph N12.9 kmh N 20.0 mph32.2 kmh 30.08 in1018.6 mb 0.00 in0.0 mm 0.00 in/hr0.0 mm/hr 0.00 in0.0 mm
03:25 AM 35.6°F2.0°C 33.0°F0.6°C 90% 4.0 mph NNE6.4 kmh NNE 20.0 mph32.2 kmh 30.08 in1018.6 mb 0.00 in0.0 mm 0.00 in/hr0.0 mm/hr 0.00 in0.0 mm
03:24 AM 35.6°F2.0°C 33.0°F0.6°C 90% 3.0 mph N4.8 kmh N 20.0 mph32.2 kmh 30.08 in1018.6 mb 0.00 in0.0 mm 0.00 in/hr0.0 mm/hr 0.00 in0.0 mm
03:23 AM 35.6°F2.0°C 33.0°F0.6°C 90% 8.0 mph N12.9 kmh N 20.0 mph32.2 kmh 30.08 in1018.6 mb 0.00 in0.0 mm 0.00 in/hr0.0 mm/hr 0.00 in0.0 mm
03:20 AM 35.9°F2.2°C 33.3°F0.7°C 90% 10.0 mph NNW16.1 kmh NNW 19.0 mph30.6 kmh 30.09 in1019.0 mb 0.00 in0.0 mm 0.00 in/hr0.0 mm/hr 0.00 in0.0 mm
03:19 AM 36.0°F2.2°C 33.4°F0.8°C 90% 6.0 mph NNW9.7 kmh NNW 19.0 mph30.6 kmh 30.08 in1018.6 mb 0.00 in0.0 mm 0.00 in/hr0.0 mm/hr 0.00 in0.0 mm
03:18 AM 36.0°F2.2°C 33.4°F0.8°C 90% 10.0 mph NNW16.1 kmh NNW 19.0 mph30.6 kmh 30.08 in1018.6 mb 0.00 in0.0 mm 0.00 in/hr0.0 mm/hr 0.00 in0.0 mm
03:15 AM 36.1°F2.3°C 33.5°F0.8°C 90% 10.0 mph NNW16.1 kmh NNW 19.0 mph30.6 kmh 30.08 in1018.6 mb 0.00 in0.0 mm 0.00 in/hr0.0 mm/hr 0.00 in0.0 mm
03:14 AM 36.2°F2.3°C 33.6°F0.9°C 90% 15.0 mph NNE24.1 kmh NNE 19.0 mph30.6 kmh 30.08 in1018.6 mb 0.00 in0.0 mm 0.00 in/hr0.0 mm/hr 0.00 in0.0 mm
03:13 AM 36.2°F2.3°C 33.6°F0.9°C 90% 19.0 mph N30.6 kmh N 19.0 mph30.6 kmh 30.08 in1018.6 mb 0.00 in0.0 mm 0.00 in/hr0.0 mm/hr 0.00 in0.0 mm
03:10 AM 36.3°F2.4°C 33.7°F0.9°C 90% 13.0 mph N20.9 kmh N 16.0 mph25.7 kmh 30.08 in1018.6 mb 0.00 in0.0 mm 0.00 in/hr0.0 mm/hr 0.00 in0.0 mm
03:09 AM 36.3°F2.4°C 33.7°F0.9°C 90% 15.0 mph NNE24.1 kmh NNE 15.0 mph24.1 kmh 30.08 in1018.6 mb 0.00 in0.0 mm 0.00 in/hr0.0 mm/hr 0.00 in0.0 mm
03:08 AM 36.3°F2.4°C 33.7°F0.9°C 90% 7.0 mph N11.3 kmh N 15.0 mph24.1 kmh 30.08 in1018.6 mb 0.00 in0.0 mm 0.00 in/hr0.0 mm/hr 0.00 in0.0 mm
03:05 AM 36.4°F2.4°C 33.8°F1.0°C 90% 11.0 mph NNW17.7 kmh NNW 13.0 mph20.9 kmh 30.08 in1018.6 mb 0.00 in0.0 mm 0.00 in/hr0.0 mm/hr 0.00 in0.0 mm
03:04 AM 36.4°F2.4°C 33.8°F1.0°C 90% 2.0 mph NNE3.2 kmh NNE 12.0 mph19.3 kmh 30.08 in1018.6 mb 0.00 in0.0 mm 0.00 in/hr0.0 mm/hr 0.00 in0.0 mm
03:03 AM 36.4°F2.4°C 33.8°F1.0°C 90% 10.0 mph N16.1 kmh N 12.0 mph19.3 kmh 30.08 in1018.6 mb 0.00 in0.0 mm 0.00 in/hr0.0 mm/hr 0.00 in0.0 mm
03:02 AM 36.4°F2.4°C 33.8°F1.0°C 90% 10.0 mph N16.1 kmh N 12.0 mph19.3 kmh 30.08 in1018.6 mb 0.00 in0.0 mm 0.00 in/hr0.0 mm/hr 0.00 in0.0 mm
03:00 AM 36.4°F2.4°C 33.8°F1.0°C 90% 9.0 mph N14.5 kmh N 11.0 mph17.7 kmh 30.08 in1018.6 mb 0.00 in0.0 mm 0.00 in/hr0.0 mm/hr 0.00 in0.0 mm
02:59 AM 36.3°F2.4°C 33.7°F0.9°C 90% 7.0 mph NNW11.3 kmh NNW 20.0 mph32.2 kmh 30.08 in1018.6 mb 0.00 in0.0 mm 0.00 in/hr0.0 mm/hr 0.00 in0.0 mm
02:58 AM 36.3°F2.4°C 33.7°F0.9°C 90% 9.0 mph N14.5 kmh N 20.0 mph32.2 kmh 30.08 in1018.6 mb 0.00 in0.0 mm 0.00 in/hr0.0 mm/hr 0.00 in0.0 mm
02:55 AM 36.4°F2.4°C 33.8°F1.0°C 90% 9.0 mph N14.5 kmh N 20.0 mph32.2 kmh 30.08 in1018.6 mb 0.00 in0.0 mm 0.00 in/hr0.0 mm/hr 0.00 in0.0 mm
02:54 AM 36.4°F2.4°C 33.8°F1.0°C 90% 10.0 mph N16.1 kmh N 20.0 mph32.2 kmh 30.08 in1018.6 mb 0.00 in0.0 mm 0.00 in/hr0.0 mm/hr 0.00 in0.0 mm
02:53 AM 36.4°F2.4°C 33.8°F1.0°C 90% 11.0 mph NNE17.7 kmh NNE 20.0 mph32.2 kmh 30.08 in1018.6 mb 0.00 in0.0 mm 0.00 in/hr0.0 mm/hr 0.00 in0.0 mm
02:50 AM 36.5°F2.5°C 33.9°F1.1°C 90% 6.0 mph NNE9.7 kmh NNE 20.0 mph32.2 kmh 30.08 in1018.6 mb 0.00 in0.0 mm 0.00 in/hr0.0 mm/hr 0.00 in0.0 mm
02:49 AM 36.4°F2.4°C 33.8°F1.0°C 90% 1.0 mph N1.6 kmh N 20.0 mph32.2 kmh 30.08 in1018.6 mb 0.00 in0.0 mm 0.00 in/hr0.0 mm/hr 0.00 in0.0 mm
02:48 AM 36.4°F2.4°C 33.8°F1.0°C 90% 7.0 mph N11.3 kmh N 20.0 mph32.2 kmh 30.08 in1018.6 mb 0.00 in0.0 mm 0.00 in/hr0.0 mm/hr 0.00 in0.0 mm
02:45 AM 36.4°F2.4°C 33.8°F1.0°C 90% 9.0 mph N14.5 kmh N 20.0 mph32.2 kmh 30.08 in1018.6 mb 0.00 in0.0 mm 0.00 in/hr0.0 mm/hr 0.00 in0.0 mm
02:44 AM 36.4°F2.4°C 33.8°F1.0°C 90% 10.0 mph NNW16.1 kmh NNW 20.0 mph32.2 kmh 30.08 in1018.6 mb 0.00 in0.0 mm 0.00 in/hr0.0 mm/hr 0.00 in0.0 mm
02:43 AM 36.4°F2.4°C 33.8°F1.0°C 90% 8.0 mph N12.9 kmh N 20.0 mph32.2 kmh 30.08 in1018.6 mb 0.00 in0.0 mm 0.00 in/hr0.0 mm/hr 0.00 in0.0 mm
02:40 AM 36.4°F2.4°C 33.8°F1.0°C 90% 7.0 mph N11.3 kmh N 20.0 mph32.2 kmh 30.08 in1018.6 mb 0.00 in0.0 mm 0.00 in/hr0.0 mm/hr 0.00 in0.0 mm
02:39 AM 36.4°F2.4°C 33.8°F1.0°C 90% 7.0 mph N11.3 kmh N 20.0 mph32.2 kmh 30.08 in1018.6 mb 0.00 in0.0 mm 0.00 in/hr0.0 mm/hr 0.00 in0.0 mm
02:38 AM 36.4°F2.4°C 33.8°F1.0°C 90% 7.0 mph N11.3 kmh N 20.0 mph32.2 kmh 30.08 in1018.6 mb 0.00 in0.0 mm 0.00 in/hr0.0 mm/hr 0.00 in0.0 mm
02:35 AM 36.4°F2.4°C 33.8°F1.0°C 90% 8.0 mph N12.9 kmh N 20.0 mph32.2 kmh 30.08 in1018.6 mb 0.00 in0.0 mm 0.00 in/hr0.0 mm/hr 0.00 in0.0 mm
02:34 AM 36.4°F2.4°C 33.8°F1.0°C 90% 14.0 mph NNE22.5 kmh NNE 20.0 mph32.2 kmh 30.08 in1018.6 mb 0.00 in0.0 mm 0.00 in/hr0.0 mm/hr 0.00 in0.0 mm
02:33 AM 36.4°F2.4°C 33.8°F1.0°C 90% 13.0 mph NE20.9 kmh NE 20.0 mph32.2 kmh 30.08 in1018.6 mb 0.00 in0.0 mm 0.00 in/hr0.0 mm/hr 0.00 in0.0 mm
02:30 AM 36.3°F2.4°C 33.7°F0.9°C 90% 6.0 mph NE9.7 kmh NE 20.0 mph32.2 kmh 30.08 in1018.6 mb 0.00 in0.0 mm 0.00 in/hr0.0 mm/hr 0.00 in0.0 mm
02:29 AM 36.4°F2.4°C 33.8°F1.0°C 90% 18.0 mph N29.0 kmh N 19.0 mph30.6 kmh 30.08 in1018.6 mb 0.00 in0.0 mm 0.00 in/hr0.0 mm/hr 0.00 in0.0 mm
02:28 AM 36.4°F2.4°C 33.8°F1.0°C 90% 8.0 mph N12.9 kmh N 19.0 mph30.6 kmh 30.08 in1018.6 mb 0.00 in0.0 mm 0.00 in/hr0.0 mm/hr 0.00 in0.0 mm
02:25 AM 36.4°F2.4°C 33.8°F1.0°C 90% 9.0 mph N14.5 kmh N 19.0 mph30.6 kmh 30.08 in1018.6 mb 0.00 in0.0 mm 0.00 in/hr0.0 mm/hr 0.00 in0.0 mm
02:24 AM 36.4°F2.4°C 33.8°F1.0°C 90% 3.0 mph N4.8 kmh N 19.0 mph30.6 kmh 30.08 in1018.6 mb 0.00 in0.0 mm 0.00 in/hr0.0 mm/hr 0.00 in0.0 mm
02:23 AM 36.4°F2.4°C 33.8°F1.0°C 90% 11.0 mph NE17.7 kmh NE 19.0 mph30.6 kmh 30.08 in1018.6 mb 0.00 in0.0 mm 0.00 in/hr0.0 mm/hr 0.00 in0.0 mm
02:20 AM 36.4°F2.4°C 34.0°F1.1°C 91% 11.0 mph NNE17.7 kmh NNE 19.0 mph30.6 kmh 30.08 in1018.6 mb 0.00 in0.0 mm 0.00 in/hr0.0 mm/hr 0.00 in0.0 mm
02:19 AM 36.4°F2.4°C 33.8°F1.0°C 90% 6.0 mph NE9.7 kmh NE 19.0 mph30.6 kmh 30.08 in1018.6 mb 0.00 in0.0 mm 0.00 in/hr0.0 mm/hr 0.00 in0.0 mm
02:18 AM 36.4°F2.4°C 33.8°F1.0°C 90% 14.0 mph N22.5 kmh N 19.0 mph30.6 kmh 30.08 in1018.6 mb 0.00 in0.0 mm 0.00 in/hr0.0 mm/hr 0.00 in0.0 mm
02:15 AM 36.5°F2.5°C 34.1°F1.2°C 91% 6.0 mph NNE9.7 kmh NNE 19.0 mph30.6 kmh 30.08 in1018.6 mb 0.00 in0.0 mm 0.00 in/hr0.0 mm/hr 0.00 in0.0 mm
02:14 AM 36.5°F2.5°C 34.1°F1.2°C 91% 10.0 mph N16.1 kmh N 19.0 mph30.6 kmh 30.08 in1018.6 mb 0.00 in0.0 mm 0.00 in/hr0.0 mm/hr 0.00 in0.0 mm
02:13 AM 36.5°F2.5°C 34.1°F1.2°C 91% 8.0 mph N12.9 kmh N 19.0 mph30.6 kmh 30.07 in1018.3 mb 0.00 in0.0 mm 0.00 in/hr0.0 mm/hr 0.00 in0.0 mm
02:10 AM 36.5°F2.5°C 34.1°F1.2°C 91% 5.0 mph N8.0 kmh N 19.0 mph30.6 kmh 30.08 in1018.6 mb 0.00 in0.0 mm 0.00 in/hr0.0 mm/hr 0.00 in0.0 mm
02:09 AM 36.5°F2.5°C 34.1°F1.2°C 91% 9.0 mph NNE14.5 kmh NNE 19.0 mph30.6 kmh 30.07 in1018.3 mb 0.00 in0.0 mm 0.00 in/hr0.0 mm/hr 0.00 in0.0 mm
02:08 AM 36.5°F2.5°C 34.1°F1.2°C 91% 8.0 mph NNE12.9 kmh NNE 19.0 mph30.6 kmh 30.07 in1018.3 mb 0.00 in0.0 mm 0.00 in/hr0.0 mm/hr 0.00 in0.0 mm
02:05 AM 36.5°F2.5°C 34.1°F1.2°C 91% 14.0 mph N22.5 kmh N 19.0 mph30.6 kmh 30.07 in1018.3 mb 0.00 in0.0 mm 0.00 in/hr0.0 mm/hr 0.00 in0.0 mm
02:04 AM 36.5°F2.5°C 34.1°F1.2°C 91% 7.0 mph N11.3 kmh N 18.0 mph29.0 kmh 30.07 in1018.3 mb 0.00 in0.0 mm 0.00 in/hr0.0 mm/hr 0.00 in0.0 mm
02:03 AM 36.5°F2.5°C 34.1°F1.2°C 91% 17.0 mph N27.4 kmh N 17.0 mph27.4 kmh 30.07 in1018.3 mb 0.00 in0.0 mm 0.00 in/hr0.0 mm/hr 0.00 in0.0 mm
02:00 AM 36.5°F2.5°C 34.1°F1.2°C 91% 10.0 mph N16.1 kmh N 15.0 mph24.1 kmh 30.07 in1018.3 mb 0.00 in0.0 mm 0.00 in/hr0.0 mm/hr 0.00 in0.0 mm
01:59 AM 36.5°F2.5°C 34.1°F1.2°C 91% 13.0 mph NNE20.9 kmh NNE 18.0 mph29.0 kmh 30.07 in1018.3 mb 0.00 in0.0 mm 0.00 in/hr0.0 mm/hr 0.00 in0.0 mm
01:58 AM 36.5°F2.5°C 34.1°F1.2°C 91% 12.0 mph N19.3 kmh N 18.0 mph29.0 kmh 30.07 in1018.3 mb 0.00 in0.0 mm 0.00 in/hr0.0 mm/hr 0.00 in0.0 mm
01:55 AM 36.6°F2.6°C 34.2°F1.2°C 91% 15.0 mph NNW24.1 kmh NNW 18.0 mph29.0 kmh 30.07 in1018.3 mb 0.00 in0.0 mm 0.00 in/hr0.0 mm/hr 0.00 in0.0 mm
01:54 AM 36.6°F2.6°C 34.0°F1.1°C 90% 14.0 mph NE22.5 kmh NE 18.0 mph29.0 kmh 30.07 in1018.3 mb 0.00 in0.0 mm 0.00 in/hr0.0 mm/hr 0.00 in0.0 mm
01:53 AM 36.6°F2.6°C 34.0°F1.1°C 90% 12.0 mph N19.3 kmh N 18.0 mph29.0 kmh 30.07 in1018.3 mb 0.00 in0.0 mm 0.00 in/hr0.0 mm/hr 0.00 in0.0 mm
01:50 AM 36.6°F2.6°C 34.2°F1.2°C 91% 8.0 mph N12.9 kmh N 18.0 mph29.0 kmh 30.07 in1018.3 mb 0.00 in0.0 mm 0.00 in/hr0.0 mm/hr 0.00 in0.0 mm
01:49 AM 36.6°F2.6°C 34.0°F1.1°C 90% 12.0 mph N19.3 kmh N 18.0 mph29.0 kmh 30.07 in1018.3 mb 0.00 in0.0 mm 0.00 in/hr0.0 mm/hr 0.00 in0.0 mm
01:48 AM 36.6°F2.6°C 34.0°F1.1°C 90% 8.0 mph N12.9 kmh N 18.0 mph29.0 kmh 30.07 in1018.3 mb 0.00 in0.0 mm 0.00 in/hr0.0 mm/hr 0.00 in0.0 mm
01:45 AM 36.6°F2.6°C 34.0°F1.1°C 90% 7.0 mph N11.3 kmh N 18.0 mph29.0 kmh 30.07 in1018.3 mb 0.00 in0.0 mm 0.00 in/hr0.0 mm/hr 0.00 in0.0 mm
01:44 AM 36.6°F2.6°C 34.0°F1.1°C 90% 6.0 mph NE9.7 kmh NE 18.0 mph29.0 kmh 30.07 in1018.3 mb 0.00 in0.0 mm 0.00 in/hr0.0 mm/hr 0.00 in0.0 mm
01:43 AM 36.6°F2.6°C 34.0°F1.1°C 90% 9.0 mph N14.5 kmh N 18.0 mph29.0 kmh 30.07 in1018.3 mb 0.00 in0.0 mm 0.00 in/hr0.0 mm/hr 0.00 in0.0 mm
01:40 AM 36.7°F2.6°C 34.1°F1.2°C 90% 5.0 mph N8.0 kmh N 18.0 mph29.0 kmh 30.07 in1018.3 mb 0.00 in0.0 mm 0.00 in/hr0.0 mm/hr 0.00 in0.0 mm
01:39 AM 36.8°F2.7°C 34.2°F1.2°C 90% 17.0 mph N27.4 kmh N 18.0 mph29.0 kmh 30.07 in1018.3 mb 0.00 in0.0 mm 0.00 in/hr0.0 mm/hr 0.00 in0.0 mm
01:38 AM 36.8°F2.7°C 34.2°F1.2°C 90% 12.0 mph NNE19.3 kmh NNE 18.0 mph29.0 kmh 30.07 in1018.3 mb 0.00 in0.0 mm 0.00 in/hr0.0 mm/hr 0.00 in0.0 mm
01:35 AM 36.8°F2.7°C 34.2°F1.2°C 90% 7.0 mph NNW11.3 kmh NNW 18.0 mph29.0 kmh 30.07 in1018.3 mb 0.00 in0.0 mm 0.00 in/hr0.0 mm/hr 0.00 in0.0 mm
01:34 AM 36.8°F2.7°C 34.2°F1.2°C 90% 5.0 mph NNE8.0 kmh NNE 18.0 mph29.0 kmh 30.07 in1018.3 mb 0.00 in0.0 mm 0.00 in/hr0.0 mm/hr 0.00 in0.0 mm
01:33 AM 36.8°F2.7°C 34.2°F1.2°C 90% 9.0 mph N14.5 kmh N 18.0 mph29.0 kmh 30.07 in1018.3 mb 0.00 in0.0 mm 0.00 in/hr0.0 mm/hr 0.00 in0.0 mm
01:30 AM 36.8°F2.7°C 34.2°F1.2°C 90% 4.0 mph N6.4 kmh N 18.0 mph29.0 kmh 30.07 in1018.3 mb 0.00 in0.0 mm 0.00 in/hr0.0 mm/hr 0.00 in0.0 mm
01:29 AM 36.9°F2.7°C 34.3°F1.3°C 90% 7.0 mph N11.3 kmh N 18.0 mph29.0 kmh 30.07 in1018.3 mb 0.00 in0.0 mm 0.00 in/hr0.0 mm/hr 0.00 in0.0 mm
01:28 AM 36.9°F2.7°C 34.3°F1.3°C 90% 8.0 mph N12.9 kmh N 18.0 mph29.0 kmh 30.07 in1018.3 mb 0.00 in0.0 mm 0.00 in/hr0.0 mm/hr 0.00 in0.0 mm
01:25 AM 37.0°F2.8°C 34.6°F1.4°C 91% 9.0 mph N14.5 kmh N 16.0 mph25.7 kmh 30.07 in1018.3 mb 0.00 in0.0 mm 0.00 in/hr0.0 mm/hr 0.00 in0.0 mm
01:24 AM 37.0°F2.8°C 34.6°F1.4°C 91% 3.0 mph NE4.8 kmh NE 16.0 mph25.7 kmh 30.07 in1018.3 mb 0.00 in0.0 mm 0.00 in/hr0.0 mm/hr 0.00 in0.0 mm
01:23 AM 37.0°F2.8°C 34.6°F1.4°C 91% 12.0 mph N19.3 kmh N 16.0 mph25.7 kmh 30.07 in1018.3 mb 0.00 in0.0 mm 0.00 in/hr0.0 mm/hr 0.00 in0.0 mm
01:20 AM 36.9°F2.7°C 34.5°F1.4°C 91% 5.0 mph NNE8.0 kmh NNE 16.0 mph25.7 kmh 30.06 in1017.9 mb 0.00 in0.0 mm 0.00 in/hr0.0 mm/hr 0.00 in0.0 mm
01:19 AM 36.9°F2.7°C 34.5°F1.4°C 91% 5.0 mph N8.0 kmh N 16.0 mph25.7 kmh 30.07 in1018.3 mb 0.00 in0.0 mm 0.00 in/hr0.0 mm/hr 0.00 in0.0 mm
01:18 AM 36.9°F2.7°C 34.5°F1.4°C 91% 16.0 mph N25.7 kmh N 16.0 mph25.7 kmh 30.06 in1017.9 mb 0.00 in0.0 mm 0.00 in/hr0.0 mm/hr 0.00 in0.0 mm
01:15 AM 37.0°F2.8°C 34.6°F1.4°C 91% 8.0 mph N12.9 kmh N 13.0 mph20.9 kmh 30.06 in1017.9 mb 0.00 in0.0 mm 0.00 in/hr0.0 mm/hr 0.00 in0.0 mm
01:14 AM 37.0°F2.8°C 34.6°F1.4°C 91% 8.0 mph NNE12.9 kmh NNE 13.0 mph20.9 kmh 30.06 in1017.9 mb 0.00 in0.0 mm 0.00 in/hr0.0 mm/hr 0.00 in0.0 mm
01:13 AM 37.0°F2.8°C 34.6°F1.4°C 91% 6.0 mph N9.7 kmh N 13.0 mph20.9 kmh 30.06 in1017.9 mb 0.00 in0.0 mm 0.00 in/hr0.0 mm/hr 0.00 in0.0 mm
01:10 AM 36.9°F2.7°C 34.5°F1.4°C 91% 8.0 mph N12.9 kmh N 13.0 mph20.9 kmh 30.06 in1017.9 mb 0.00 in0.0 mm 0.00 in/hr0.0 mm/hr 0.00 in0.0 mm
01:09 AM 36.9°F2.7°C 34.5°F1.4°C 91% 11.0 mph N17.7 kmh N 13.0 mph20.9 kmh 30.06 in1017.9 mb 0.00 in0.0 mm 0.00 in/hr0.0 mm/hr 0.00 in0.0 mm
01:08 AM 36.9°F2.7°C 34.5°F1.4°C 91% 6.0 mph N9.7 kmh N 13.0 mph20.9 kmh 30.06 in1017.9 mb 0.00 in0.0 mm 0.00 in/hr0.0 mm/hr 0.00 in0.0 mm
01:05 AM 36.9°F2.7°C 34.5°F1.4°C 91% 6.0 mph NNW9.7 kmh NNW 13.0 mph20.9 kmh 30.06 in1017.9 mb 0.00 in0.0 mm 0.00 in/hr0.0 mm/hr 0.00 in0.0 mm
01:04 AM 36.9°F2.7°C 34.5°F1.4°C 91% 11.0 mph N17.7 kmh N 13.0 mph20.9 kmh 30.06 in1017.9 mb 0.00 in0.0 mm 0.00 in/hr0.0 mm/hr 0.00 in0.0 mm
01:03 AM 37.0°F2.8°C 34.6°F1.4°C 91% 6.0 mph NNE9.7 kmh NNE 11.0 mph17.7 kmh 30.06 in1017.9 mb 0.00 in0.0 mm 0.00 in/hr0.0 mm/hr 0.00 in0.0 mm
01:00 AM 37.0°F2.8°C 34.6°F1.4°C 91% 5.0 mph N8.0 kmh N 6.0 mph9.7 kmh 30.06 in1017.9 mb 0.00 in0.0 mm 0.00 in/hr0.0 mm/hr 0.00 in0.0 mm
12:59 AM 37.0°F2.8°C 34.4°F1.3°C 90% 7.0 mph N11.3 kmh N 16.0 mph25.7 kmh 30.06 in1017.9 mb 0.00 in0.0 mm 0.00 in/hr0.0 mm/hr 0.00 in0.0 mm
12:58 AM 37.0°F2.8°C 34.6°F1.4°C 91% 5.0 mph NNW8.0 kmh NNW 16.0 mph25.7 kmh 30.06 in1017.9 mb 0.00 in0.0 mm 0.00 in/hr0.0 mm/hr 0.00 in0.0 mm
12:55 AM 37.0°F2.8°C 34.6°F1.4°C 91% 10.0 mph NNW16.1 kmh NNW 16.0 mph25.7 kmh 30.06 in1017.9 mb 0.00 in0.0 mm 0.00 in/hr0.0 mm/hr 0.00 in0.0 mm
12:54 AM 37.1°F2.8°C 34.7°F1.5°C 91% 4.0 mph N6.4 kmh N 16.0 mph25.7 kmh 30.06 in1017.9 mb 0.00 in0.0 mm 0.00 in/hr0.0 mm/hr 0.00 in0.0 mm
12:53 AM 37.1°F2.8°C 34.7°F1.5°C 91% 3.0 mph NNE4.8 kmh NNE 16.0 mph25.7 kmh 30.06 in1017.9 mb 0.00 in0.0 mm 0.00 in/hr0.0 mm/hr 0.00 in0.0 mm
12:50 AM 37.1°F2.8°C 34.7°F1.5°C 91% 8.0 mph N12.9 kmh N 16.0 mph25.7 kmh 30.06 in1017.9 mb 0.00 in0.0 mm 0.00 in/hr0.0 mm/hr 0.00 in0.0 mm
12:49 AM 37.1°F2.8°C 34.7°F1.5°C 91% 8.0 mph NNE12.9 kmh NNE 16.0 mph25.7 kmh 30.06 in1017.9 mb 0.00 in0.0 mm 0.00 in/hr0.0 mm/hr 0.00 in0.0 mm
12:48 AM 37.1°F2.8°C 34.7°F1.5°C 91% 3.0 mph N4.8 kmh N 16.0 mph25.7 kmh 30.06 in1017.9 mb 0.00 in0.0 mm 0.00 in/hr0.0 mm/hr 0.00 in0.0 mm
12:45 AM 37.2°F2.9°C 34.8°F1.6°C 91% 9.0 mph NNE14.5 kmh NNE 16.0 mph25.7 kmh 30.06 in1017.9 mb 0.00 in0.0 mm 0.00 in/hr0.0 mm/hr 0.00 in0.0 mm
12:44 AM 37.2°F2.9°C 34.8°F1.6°C 91% 3.0 mph N4.8 kmh N 16.0 mph25.7 kmh 30.06 in1017.9 mb 0.00 in0.0 mm 0.00 in/hr0.0 mm/hr 0.00 in0.0 mm
12:43 AM 37.1°F2.8°C 34.4°F1.3°C 90% 3.0 mph NE4.8 kmh NE 16.0 mph25.7 kmh 30.06 in1017.9 mb 0.00 in0.0 mm 0.00 in/hr0.0 mm/hr 0.00 in0.0 mm
12:40 AM 37.2°F2.9°C 34.5°F1.4°C 90% 9.0 mph NW14.5 kmh NW 16.0 mph25.7 kmh 30.06 in1017.9 mb 0.00 in0.0 mm 0.00 in/hr0.0 mm/hr 0.00 in0.0 mm
12:39 AM 37.2°F2.9°C 34.5°F1.4°C 90% 10.0 mph NNE16.1 kmh NNE 16.0 mph25.7 kmh 30.06 in1017.9 mb 0.00 in0.0 mm 0.00 in/hr0.0 mm/hr 0.00 in0.0 mm
12:38 AM 37.2°F2.9°C 34.5°F1.4°C 90% 6.0 mph N9.7 kmh N 16.0 mph25.7 kmh 30.06 in1017.9 mb 0.00 in0.0 mm 0.00 in/hr0.0 mm/hr 0.00 in0.0 mm
12:35 AM 37.3°F2.9°C 34.6°F1.4°C 90% 5.0 mph NNE8.0 kmh NNE 16.0 mph25.7 kmh 30.06 in1017.9 mb 0.00 in0.0 mm 0.00 in/hr0.0 mm/hr 0.00 in0.0 mm
12:34 AM 37.3°F2.9°C 34.6°F1.4°C 90% 5.0 mph N8.0 kmh N 16.0 mph25.7 kmh 30.06 in1017.9 mb 0.00 in0.0 mm 0.00 in/hr0.0 mm/hr 0.00 in0.0 mm
12:33 AM 37.4°F3.0°C 34.7°F1.5°C 90% 11.0 mph N17.7 kmh N 16.0 mph25.7 kmh 30.06 in1017.9 mb 0.00 in0.0 mm 0.00 in/hr0.0 mm/hr 0.00 in0.0 mm
12:30 AM 37.5°F3.1°C 34.8°F1.6°C 90% 7.0 mph N11.3 kmh N 15.0 mph24.1 kmh 30.06 in1017.9 mb 0.00 in0.0 mm 0.00 in/hr0.0 mm/hr 0.00 in0.0 mm
12:29 AM 37.5°F3.1°C 34.8°F1.6°C 90% 8.0 mph N12.9 kmh N 15.0 mph24.1 kmh 30.06 in1017.9 mb 0.00 in0.0 mm 0.00 in/hr0.0 mm/hr 0.00 in0.0 mm
12:28 AM 37.5°F3.1°C 34.8°F1.6°C 90% 8.0 mph N12.9 kmh N 15.0 mph24.1 kmh 30.06 in1017.9 mb 0.00 in0.0 mm 0.00 in/hr0.0 mm/hr 0.00 in0.0 mm
12:25 AM 37.5°F3.1°C 34.8°F1.6°C 90% 7.0 mph N11.3 kmh N 15.0 mph24.1 kmh 30.06 in1017.9 mb 0.00 in0.0 mm 0.00 in/hr0.0 mm/hr 0.00 in0.0 mm
12:24 AM 37.5°F3.1°C 34.8°F1.6°C 90% 4.0 mph NE6.4 kmh NE 15.0 mph24.1 kmh 30.06 in1017.9 mb 0.00 in0.0 mm 0.00 in/hr0.0 mm/hr 0.00 in0.0 mm
12:23 AM 37.5°F3.1°C 34.8°F1.6°C 90% 7.0 mph N11.3 kmh N 15.0 mph24.1 kmh 30.06 in1017.9 mb 0.00 in0.0 mm 0.00 in/hr0.0 mm/hr 0.00 in0.0 mm
12:20 AM 37.6°F3.1°C 34.9°F1.6°C 90% 9.0 mph NE14.5 kmh NE 15.0 mph24.1 kmh 30.06 in1017.9 mb 0.00 in0.0 mm 0.00 in/hr0.0 mm/hr 0.00 in0.0 mm
12:19 AM 37.6°F3.1°C 34.9°F1.6°C 90% 13.0 mph NNW20.9 kmh NNW 15.0 mph24.1 kmh 30.06 in1017.9 mb 0.00 in0.0 mm 0.00 in/hr0.0 mm/hr 0.00 in0.0 mm
12:18 AM 37.6°F3.1°C 35.2°F1.8°C 91% 2.0 mph N3.2 kmh N 15.0 mph24.1 kmh 30.05 in1017.6 mb 0.00 in0.0 mm 0.00 in/hr0.0 mm/hr 0.00 in0.0 mm
12:15 AM 37.6°F3.1°C 35.2°F1.8°C 91% 8.0 mph NNW12.9 kmh NNW 15.0 mph24.1 kmh 30.05 in1017.6 mb 0.00 in0.0 mm 0.00 in/hr0.0 mm/hr 0.00 in0.0 mm
12:14 AM 37.6°F3.1°C 35.2°F1.8°C 91% 5.0 mph NNE8.0 kmh NNE 15.0 mph24.1 kmh 30.06 in1017.9 mb 0.00 in0.0 mm 0.00 in/hr0.0 mm/hr 0.00 in0.0 mm
12:13 AM 37.6°F3.1°C 35.2°F1.8°C 91% 11.0 mph NNE17.7 kmh NNE 15.0 mph24.1 kmh 30.05 in1017.6 mb 0.00 in0.0 mm 0.00 in/hr0.0 mm/hr 0.00 in0.0 mm
12:10 AM 37.7°F3.2°C 35.0°F1.7°C 90% 7.0 mph N11.3 kmh N 14.0 mph22.5 kmh 30.05 in1017.6 mb 0.00 in0.0 mm 0.00 in/hr0.0 mm/hr 0.00 in0.0 mm
12:09 AM 37.7°F3.2°C 35.3°F1.8°C 91% 5.0 mph N8.0 kmh N 14.0 mph22.5 kmh 30.05 in1017.6 mb 0.00 in0.0 mm 0.00 in/hr0.0 mm/hr 0.00 in0.0 mm
12:08 AM 37.8°F3.2°C 35.4°F1.9°C 91% 9.0 mph NNE14.5 kmh NNE 14.0 mph22.5 kmh 30.05 in1017.6 mb 0.00 in0.0 mm 0.00 in/hr0.0 mm/hr 0.00 in0.0 mm
12:05 AM 37.8°F3.2°C 35.4°F1.9°C 91% 4.0 mph N6.4 kmh N 13.0 mph20.9 kmh 30.05 in1017.6 mb 0.00 in0.0 mm 0.00 in/hr0.0 mm/hr 0.00 in0.0 mm
12:04 AM 37.8°F3.2°C 35.4°F1.9°C 91% 9.0 mph NE14.5 kmh NE 13.0 mph20.9 kmh 30.05 in1017.6 mb 0.00 in0.0 mm 0.00 in/hr0.0 mm/hr 0.00 in0.0 mm
12:03 AM 37.8°F3.2°C 35.4°F1.9°C 91% 4.0 mph N6.4 kmh N 13.0 mph20.9 kmh 30.05 in1017.6 mb 0.00 in0.0 mm 0.00 in/hr0.0 mm/hr 0.00 in0.0 mm
12:00 AM 37.8°F3.2°C 35.1°F1.7°C 90% 6.0 mph N9.7 kmh N 9.0 mph14.5 kmh 30.05 in1017.6 mb 0.00 in0.0 mm 0.00 in/hr0.0 mm/hr 0.00 in0.0 mm